Time;durP1;ratioP1;P1;durP2;ratioP2;P2;SDS_P1;SDS_P2;PMS_P1;PMS_P2;Temp;Humidity;BMP_temperature;BMP_pressure;BME280_temperature;BME280_humidity;BME280_pressure;Samples;Min_cycle;Max_cycle;Signal;HPM_P1;HPM_P2
2022/03/16 00:01:53;;;;;;;;;;;;;;;5.29;100.00;102526.75;4955804;28;20013;-73
2022/03/16 00:04:18;;;;;;;;;;;;;;;5.22;100.00;102519.69;4956738;28;19926;-73
2022/03/16 00:06:43;;;;;;;;;;;;;;;5.15;100.00;102529.31;4975765;28;19953;-73
2022/03/16 00:09:09;;;;;;;;;;;;;;;5.06;100.00;102523.97;4975930;28;19973;-73
2022/03/16 00:11:34;;;;;;;;;;;;;;;5.02;100.00;102531.84;4975803;28;20404;-73
2022/03/16 00:13:59;;;;;;;;;;;;;;;4.99;100.00;102527.47;4976097;28;19918;-73
2022/03/16 00:16:25;;;;;;;;;;;;;;;4.93;100.00;102532.69;4975789;28;20327;-73
2022/03/16 00:18:50;;;;;;;;;;;;;;;4.85;100.00;102529.13;4976036;28;20016;-73
2022/03/16 00:21:15;;;;;;;;;;;;;;;4.83;100.00;102536.09;4975707;28;20278;-73
2022/03/16 00:23:40;;;;;;;;;;;;;;;4.77;100.00;102541.34;4974442;28;19969;-73
2022/03/16 00:26:06;;;;;;;;;;;;;;;4.74;100.00;102547.44;4975482;28;19924;-73
2022/03/16 00:28:31;;;;;;;;;;;;;;;4.70;100.00;102544.75;4975560;28;19918;-73
2022/03/16 00:30:56;;;;;;;;;;;;;;;4.66;100.00;102553.53;4974358;28;19917;-73
2022/03/16 00:33:21;;;;;;;;;;;;;;;4.64;100.00;102555.25;4974250;28;19988;-73
2022/03/16 00:35:46;;;;;;;;;;;;;;;4.62;100.00;102556.97;4975475;28;19918;-73
2022/03/16 00:38:14;;;;;;;;;;;;;;;4.63;100.00;102561.38;4975507;28;20269;-73
2022/03/16 00:40:39;;;;;;;;;;;;;;;4.57;100.00;102571.84;4974221;28;19949;-73
2022/03/16 00:43:05;;;;;;;;;;;;;;;4.53;100.00;102573.59;4975320;28;19973;-73
2022/03/16 00:45:30;;;;;;;;;;;;;;;4.52;100.00;102573.56;4975073;28;19961;-73
2022/03/16 00:47:55;;;;;;;;;;;;;;;4.52;100.00;102566.53;4975139;28;19977;-73
2022/03/16 00:50:20;;;;;;;;;;;;;;;4.51;100.00;102577.94;4975224;28;19921;-72
2022/03/16 00:52:45;;;;;;;;;;;;;;;4.48;100.00;102574.38;4974949;28;19933;-73
2022/03/16 00:55:11;;;;;;;;;;;;;;;4.46;100.00;102577.00;4975390;28;20033;-73
2022/03/16 00:57:36;;;;;;;;;;;;;;;4.41;100.00;102577.84;4975308;28;19925;-73
2022/03/16 01:00:02;;;;;;;;;;;;;;;4.39;100.00;102580.47;4973907;28;19918;-73
2022/03/16 01:02:27;;;;;;;;;;;;;;;4.34;100.00;102592.69;4973760;28;20012;-73
2022/03/16 01:04:53;;;;;;;;;;;;;;;4.31;100.00;102592.66;4973871;28;20324;-73
2022/03/16 01:07:18;;;;;;;;;;;;;;;4.28;100.00;102582.09;4973712;28;19918;-72
2022/03/16 01:09:43;;;;;;;;;;;;;;;4.36;100.00;102587.44;4973709;28;20371;-73
2022/03/16 01:12:09;;;;;;;;;;;;;;;4.31;100.00;102583.88;4974632;28;19922;-73
2022/03/16 01:14:34;;;;;;;;;;;;;;;4.25;100.00;102582.06;4974919;28;19918;-73
2022/03/16 01:17:00;;;;;;;;;;;;;;;4.25;100.00;102583.81;4975141;28;19950;-73
2022/03/16 01:19:25;;;;;;;;;;;;;;;4.28;100.00;102581.22;4974928;28;19917;-73
2022/03/16 01:21:50;;;;;;;;;;;;;;;4.26;100.00;102583.81;4973542;28;19973;-73
2022/03/16 01:24:15;;;;;;;;;;;;;;;4.26;100.00;102583.81;4975013;28;19969;-72
2022/03/16 01:26:41;;;;;;;;;;;;;;;4.25;100.00;102594.31;4974854;28;20304;-73
2022/03/16 01:29:06;;;;;;;;;;;;;;;4.23;100.00;102591.69;4973553;28;19918;-73
2022/03/16 01:31:31;;;;;;;;;;;;;;;4.17;100.00;102589.00;4975802;28;19918;-73
2022/03/16 01:33:56;;;;;;;;;;;;;;;4.14;100.00;102590.69;4974985;28;19918;-73
2022/03/16 01:36:22;;;;;;;;;;;;;;;4.12;100.00;102593.31;4974888;28;19918;-73
2022/03/16 01:38:47;;;;;;;;;;;;;;;4.15;100.00;102587.19;4973623;28;19941;-73
2022/03/16 01:41:13;;;;;;;;;;;;;;;4.12;100.00;102589.78;4973356;28;19925;-72
2022/03/16 01:43:38;;;;;;;;;;;;;;;4.11;100.00;102590.66;4974836;28;19969;-73
2022/03/16 01:46:04;;;;;;;;;;;;;;;4.12;100.00;102605.56;4973449;28;20024;-72
2022/03/16 01:48:29;;;;;;;;;;;;;;;4.10;100.00;102609.91;4974836;28;20302;-73
2022/03/16 01:50:55;;;;;;;;;;;;;;;4.07;100.00;102607.25;4974343;28;19922;-73
2022/03/16 01:53:24;;;;;;;;;;;;;;;4.07;100.00;102599.34;4980959;28;20390;-72
2022/03/16 01:55:50;;;;;;;;;;;;;;;4.07;100.00;102597.63;4956150;28;19922;-72
2022/03/16 01:58:17;;;;;;;;;;;;;;;4.07;100.00;102586.22;4955338;28;20284;-73
2022/03/16 02:00:42;;;;;;;;;;;;;;;4.10;100.00;102591.50;4970157;28;19922;-73
2022/03/16 02:03:08;;;;;;;;;;;;;;;4.08;100.00;102590.63;4970389;28;20006;-72
2022/03/16 02:05:33;;;;;;;;;;;;;;;4.07;100.00;102583.59;4970365;28;19989;-73
2022/03/16 02:07:59;;;;;;;;;;;;;;;4.17;100.00;102588.09;4955294;28;19925;-73
2022/03/16 02:10:24;;;;;;;;;;;;;;;4.08;100.00;102588.00;4969979;28;19925;-73
2022/03/16 02:12:50;;;;;;;;;;;;;;;4.05;100.00;102587.97;4955178;28;19962;-73
2022/03/16 02:15:16;;;;;;;;;;;;;;;4.02;100.00;102582.66;4955437;28;20008;-72
2022/03/16 02:17:42;;;;;;;;;;;;;;;3.96;100.00;102570.34;4969883;28;19918;-73
2022/03/16 02:20:07;;;;;;;;;;;;;;;3.95;100.00;102565.06;4955672;29;20512;-73
2022/03/16 02:22:35;;;;;;;;;;;;;;;3.93;100.00;102559.78;4955001;28;19981;-72
2022/03/16 02:25:00;;;;;;;;;;;;;;;3.92;100.00;102551.88;4972563;28;19919;-73
2022/03/16 02:27:26;;;;;;;;;;;;;;;3.90;100.00;102550.97;4958588;28;20331;-73
2022/03/16 02:29:51;;;;;;;;;;;;;;;3.91;100.00;102555.34;4958624;29;20343;-73
2022/03/16 02:32:16;;;;;;;;;;;;;;;3.92;100.00;102555.41;4958378;29;19918;-73
2022/03/16 02:34:41;;;;;;;;;;;;;;;3.88;100.00;102548.31;4958512;29;19926;-73
2022/03/16 02:37:07;;;;;;;;;;;;;;;3.89;100.00;102544.81;4958581;28;19919;-72
2022/03/16 02:39:32;;;;;;;;;;;;;;;3.90;100.00;102543.97;4973302;28;20300;-72
2022/03/16 02:41:57;;;;;;;;;;;;;;;3.94;100.00;102547.53;4958151;29;19922;-73
2022/03/16 02:44:22;;;;;;;;;;;;;;;3.96;100.00;102548.41;4972981;28;19918;-73
2022/03/16 02:46:48;;;;;;;;;;;;;;;3.99;100.00;102546.69;4973166;28;19930;-73
2022/03/16 02:49:13;;;;;;;;;;;;;;;3.99;100.00;102559.84;4958075;29;19926;-73
2022/03/16 02:51:38;;;;;;;;;;;;;;;3.89;100.00;102549.22;4958055;28;19926;-73
2022/03/16 02:54:04;;;;;;;;;;;;;;;3.92;100.00;102550.16;4958087;28;19926;-73
2022/03/16 02:56:29;;;;;;;;;;;;;;;3.89;100.00;102546.59;4958053;28;19919;-73
2022/03/16 02:58:55;;;;;;;;;;;;;;;3.83;100.00;102549.16;4973203;28;20017;-73
2022/03/16 03:01:20;;;;;;;;;;;;;;;3.80;100.00;102543.88;4972704;28;20391;-72
2022/03/16 03:03:45;;;;;;;;;;;;;;;3.83;100.00;102538.66;4958131;28;20005;-73
2022/03/16 03:06:10;;;;;;;;;;;;;;;3.85;100.00;102536.88;4972943;28;19919;-73
2022/03/16 03:08:35;;;;;;;;;;;;;;;3.80;100.00;102547.34;4958227;29;19962;-73
2022/03/16 03:11:01;;;;;;;;;;;;;;;3.72;100.00;102533.25;4958497;29;19942;-73
2022/03/16 03:13:27;;;;;;;;;;;;;;;3.69;100.00;102540.22;4958494;28;19957;-73
2022/03/16 03:15:52;;;;;;;;;;;;;;;3.65;100.00;102531.41;4973471;28;19927;-73
2022/03/16 03:18:17;;;;;;;;;;;;;;;3.69;100.00;102535.81;4958963;29;19985;-72
2022/03/16 03:20:42;;;;;;;;;;;;;;;3.69;100.00;102527.94;4960297;29;19918;-72
2022/03/16 03:23:08;;;;;;;;;;;;;;;3.68;100.00;102517.41;4962909;29;19941;-72
2022/03/16 03:25:33;;;;;;;;;;;;;;;3.61;100.00;102518.22;4959121;29;20423;-73
2022/03/16 03:27:58;;;;;;;;;;;;;;;3.65;100.00;102517.38;4959632;29;19984;-73
2022/03/16 03:30:23;;;;;;;;;;;;;;;3.65;100.00;102517.38;4962328;29;19927;-72
2022/03/16 03:32:49;;;;;;;;;;;;;;;3.65;100.00;102520.91;4962046;28;19923;-72
2022/03/16 03:35:14;;;;;;;;;;;;;;;3.57;100.00;102516.41;4962723;28;20001;-72
2022/03/16 03:37:40;;;;;;;;;;;;;;;3.56;100.00;102518.16;4978055;28;19985;-72
2022/03/16 03:40:05;;;;;;;;;;;;;;;3.62;100.00;102514.72;4972739;28;19918;-72
2022/03/16 03:42:30;;;;;;;;;;;;;;;3.61;100.00;102518.22;4961054;28;19918;-72
2022/03/16 03:45:00;;;;;;;;;;;;;;;3.60;100.00;102519.97;4959349;28;19918;-72
2022/03/16 03:47:25;;;;;;;;;;;;;;;3.69;100.00;102525.31;4972210;28;19919;-72
2022/03/16 03:50:11;;;;;;;;;;;;;;;3.72;100.00;102529.75;4957088;29;19925;-72
2022/03/16 03:52:36;;;;;;;;;;;;;;;3.74;100.00;102530.63;4955954;28;19930;-72
2022/03/16 03:55:02;;;;;;;;;;;;;;;3.70;100.00;102526.22;4956824;29;20013;-72
2022/03/16 03:57:27;;;;;;;;;;;;;;;3.71;100.00;102527.97;4971831;28;19973;-72
2022/03/16 04:02:55;;;;;;;;;;;;;;;3.83;100.00;102541.28;4956833;29;20020;-73
2022/03/16 04:05:20;;;;;;;;;;;;;;;3.75;100.00;102535.03;4971678;28;19918;-72
2022/03/16 04:07:48;;;;;;;;;;;;;;;3.69;100.00;102535.81;4971553;28;19925;-72
2022/03/16 04:10:13;;;;;;;;;;;;;;;3.80;100.00;102541.25;4971377;28;19919;-72
2022/03/16 04:12:38;;;;;;;;;;;;;;;3.78;100.00;102537.69;4956510;29;19940;-72
2022/03/16 04:15:04;;;;;;;;;;;;;;;3.75;100.00;102541.16;4971293;28;20017;-72
2022/03/16 04:17:29;;;;;;;;;;;;;;;3.70;100.00;102536.72;4957010;28;20002;-72
2022/03/16 04:19:54;;;;;;;;;;;;;;;3.60;100.00;102537.47;4956671;29;19919;-73
2022/03/16 04:22:20;;;;;;;;;;;;;;;3.69;100.00;102548.09;4971234;28;19918;-73
2022/03/16 04:24:45;;;;;;;;;;;;;;;3.65;100.00;102556.78;4971219;28;19969;-73
2022/03/16 04:27:10;;;;;;;;;;;;;;;3.68;100.00;102548.94;4956329;29;19925;-73
2022/03/16 04:29:35;;;;;;;;;;;;;;;3.69;100.00;102550.75;4956340;29;19925;-72
2022/03/16 04:32:00;;;;;;;;;;;;;;;3.71;100.00;102548.97;4971117;28;19966;-72
2022/03/16 04:34:26;;;;;;;;;;;;;;;3.67;100.00;102555.94;4956127;29;20005;-72
2022/03/16 04:36:51;;;;;;;;;;;;;;;3.70;100.00;102561.25;4956296;29;20375;-73
2022/03/16 04:39:16;;;;;;;;;;;;;;;3.67;100.00;102566.44;4956196;29;19968;-72
2022/03/16 04:41:42;;;;;;;;;;;;;;;3.65;100.00;102555.06;4970914;28;19918;-72
2022/03/16 04:44:07;;;;;;;;;;;;;;;3.73;100.00;102561.31;4956106;28;19929;-73
2022/03/16 04:46:32;;;;;;;;;;;;;;;3.77;100.00;102570.97;4955749;28;19918;-72
2022/03/16 04:48:57;;;;;;;;;;;;;;;3.79;100.00;102563.09;4956054;29;19958;-74
2022/03/16 04:51:23;;;;;;;;;;;;;;;3.86;100.00;102563.19;4956190;28;20307;-73
2022/03/16 04:53:48;;;;;;;;;;;;;;;3.85;100.00;102571.94;4956356;29;19922;-72
2022/03/16 04:56:14;;;;;;;;;;;;;;;3.73;100.00;102566.56;4956199;29;19919;-73
2022/03/16 04:58:39;;;;;;;;;;;;;;;3.70;100.00;102569.16;4970706;28;19953;-73
2022/03/16 05:01:04;;;;;;;;;;;;;;;3.68;100.00;102565.59;4956038;29;20372;-72
2022/03/16 05:03:29;;;;;;;;;;;;;;;3.65;100.00;102569.94;4956132;29;19926;-73
2022/03/16 05:05:54;;;;;;;;;;;;;;;3.69;100.00;102569.13;4971117;28;19919;-72
2022/03/16 05:08:20;;;;;;;;;;;;;;;3.65;100.00;102569.94;4956549;29;19958;-74
2022/03/16 05:10:45;;;;;;;;;;;;;;;3.69;100.00;102566.50;4955889;29;19918;-74
2022/03/16 05:13:10;;;;;;;;;;;;;;;3.65;100.00;102562.06;4973776;28;19926;-72
2022/03/16 05:15:35;;;;;;;;;;;;;;;3.68;100.00;102562.09;4975076;28;20271;-73
2022/03/16 05:18:00;;;;;;;;;;;;;;;3.65;100.00;102557.69;4972638;28;20406;-73
2022/03/16 05:20:26;;;;;;;;;;;;;;;3.73;100.00;102568.28;4954403;29;20372;-72
2022/03/16 05:22:52;;;;;;;;;;;;;;;3.65;100.00;102573.44;4970547;28;20028;-73
2022/03/16 05:25:18;;;;;;;;;;;;;;;3.71;100.00;102572.63;4955512;28;20398;-72
2022/03/16 05:27:44;;;;;;;;;;;;;;;3.73;100.00;102576.16;4954375;28;19978;-73
2022/03/16 05:30:10;;;;;;;;;;;;;;;3.71;100.00;102565.63;4970721;28;20013;-76
2022/03/16 05:32:35;;;;;;;;;;;;;;;3.70;100.00;102569.16;4970397;28;20021;-72
2022/03/16 05:35:01;;;;;;;;;;;;;;;3.70;100.00;102569.16;4955962;28;20398;-74
2022/03/16 05:37:26;;;;;;;;;;;;;;;3.76;100.00;102563.97;4957608;28;19919;-75
2022/03/16 05:39:52;;;;;;;;;;;;;;;3.68;100.00;102567.34;4954249;29;20009;-72
2022/03/16 05:42:18;;;;;;;;;;;;;;;3.69;100.00;102563.88;4954097;28;19927;-73
2022/03/16 05:44:43;;;;;;;;;;;;;;;3.66;100.00;102572.56;4954117;29;19918;-74
2022/03/16 05:47:08;;;;;;;;;;;;;;;3.63;100.00;102569.03;4955942;29;19965;-72
2022/03/16 05:49:33;;;;;;;;;;;;;;;3.62;100.00;102569.91;4954245;29;20376;-72
2022/03/16 05:51:59;;;;;;;;;;;;;;;3.62;100.00;102575.16;4958127;28;19919;-72
2022/03/16 05:54:24;;;;;;;;;;;;;;;3.64;100.00;102576.91;4973251;28;19956;-73
2022/03/16 05:56:49;;;;;;;;;;;;;;;3.60;100.00;102571.63;4974411;28;19918;-73
2022/03/16 05:59:14;;;;;;;;;;;;;;;3.63;100.00;102576.91;4977532;28;19918;-73
2022/03/16 06:01:39;;;;;;;;;;;;;;;3.70;100.00;102579.66;4977961;28;19918;-72
2022/03/16 06:04:05;;;;;;;;;;;;;;;3.70;100.00;102579.66;4978573;28;19918;-75
2022/03/16 06:06:31;;;;;;;;;;;;;;;3.69;100.00;102587.53;4978045;28;20287;-72
2022/03/16 06:08:56;;;;;;;;;;;;;;;3.67;100.00;102574.31;4977947;28;19918;-73
2022/03/16 06:11:21;;;;;;;;;;;;;;;3.76;100.00;102586.72;4978217;28;19918;-73
2022/03/16 06:13:47;;;;;;;;;;;;;;;3.80;100.00;102575.41;4977869;28;20331;-72
2022/03/16 06:16:12;;;;;;;;;;;;;;;3.78;100.00;102583.22;4976902;28;20430;-72
2022/03/16 06:18:37;;;;;;;;;;;;;;;3.86;100.00;102583.34;4978027;28;19929;-72
2022/03/16 06:21:02;;;;;;;;;;;;;;;3.87;100.00;102574.59;4976655;28;19924;-72
2022/03/16 06:23:27;;;;;;;;;;;;;;;3.91;100.00;102576.38;4978020;28;20438;-73
2022/03/16 06:25:53;;;;;;;;;;;;;;;3.95;100.00;102592.22;4978081;28;20288;-75
2022/03/16 06:28:18;;;;;;;;;;;;;;;3.98;100.00;102580.84;4976415;28;19965;-73
2022/03/16 06:30:43;;;;;;;;;;;;;;;4.01;100.00;102580.91;4977636;28;20355;-73
2022/03/16 06:33:09;;;;;;;;;;;;;;;4.04;100.00;102578.28;4976545;28;19968;-73
2022/03/16 06:35:34;;;;;;;;;;;;;;;4.03;100.00;102580.06;4976416;28;20410;-73
2022/03/16 06:37:59;;;;;;;;;;;;;;;4.14;100.00;102582.81;4976304;28;19918;-73
2022/03/16 06:40:24;;;;;;;;;;;;;;;4.22;100.00;102570.63;4977469;28;19919;-73
2022/03/16 06:42:50;;;;;;;;;;;;;;;4.26;100.00;102565.41;4977788;28;19918;-73
2022/03/16 06:45:16;;;;;;;;;;;;;;;4.26;100.00;102564.53;4977394;28;20430;-73
2022/03/16 06:47:42;;;;;;;;;;;;;;;4.29;100.00;102567.19;4977389;28;19928;-73
2022/03/16 06:50:07;;;;;;;;;;;;;;;4.35;100.00;102569.88;4977826;28;19921;-73
2022/03/16 06:52:32;;;;;;;;;;;;;;;4.44;100.00;102567.34;4975703;28;19932;-73
2022/03/16 06:54:58;;;;;;;;;;;;;;;4.47;100.00;102559.47;4977235;28;19922;-73
2022/03/16 06:57:23;;;;;;;;;;;;;;;4.51;100.00;102556.00;4977374;28;20406;-73
2022/03/16 06:59:48;;;;;;;;;;;;;;;4.60;100.00;102550.84;4976830;28;19922;-74
2022/03/16 07:02:14;;;;;;;;;;;;;;;4.67;100.00;102556.16;4976676;28;20372;-73
2022/03/16 07:04:39;;;;;;;;;;;;;;;4.79;100.00;102557.13;4971545;28;19929;-73
2022/03/16 07:07:04;;;;;;;;;;;;;;;4.85;100.00;102554.53;4973086;28;19922;-74
2022/03/16 07:09:32;;;;;;;;;;;;;;;4.96;100.00;102556.41;4963220;28;19926;-74
2022/03/16 07:11:57;;;;;;;;;;;;;;;5.02;100.00;102556.44;4970053;28;19925;-74
2022/03/16 07:14:31;;;;;;;;;;;;;;;4.99;100.00;102548.53;4965283;28;19919;-75
2022/03/16 07:16:57;;;;;;;;;;;;;;;5.03;100.00;102538.91;4952579;28;19926;-76
2022/03/16 07:19:22;;;;;;;;;;;;;;;5.10;100.00;102546.84;4967468;28;19925;-73
2022/03/16 07:21:48;;;;;;;;;;;;;;;5.05;100.00;102551.19;4964354;28;19922;-75
2022/03/16 07:24:13;;;;;;;;;;;;;;;5.05;100.00;102553.81;4972576;28;19918;-73
2022/03/16 07:26:39;;;;;;;;;;;;;;;5.12;100.00;102550.34;4962548;28;19926;-73
2022/03/16 07:29:04;;;;;;;;;;;;;;;5.22;100.00;102546.91;4967322;28;19949;-73
2022/03/16 07:31:29;;;;;;;;;;;;;;;5.36;100.00;102523.25;4966463;28;19918;-73
2022/03/16 07:33:54;;;;;;;;;;;;;;;5.57;100.00;102511.09;4962992;28;19927;-73
2022/03/16 07:36:20;;;;;;;;;;;;;;;5.73;100.00;102505.03;4965405;28;19918;-73
2022/03/16 07:38:45;;;;;;;;;;;;;;;5.67;100.00;102489.16;4964547;28;19956;-73
2022/03/16 07:41:11;;;;;;;;;;;;;;;5.78;100.00;102486.56;4965046;28;19918;-73
2022/03/16 07:43:36;;;;;;;;;;;;;;;5.89;100.00;102471.69;4965178;28;19918;-73
2022/03/16 07:46:03;;;;;;;;;;;;;;;5.94;100.00;102465.53;4956913;28;20019;-73
2022/03/16 07:48:28;;;;;;;;;;;;;;;5.99;100.00;102449.72;4957137;28;20291;-74
2022/03/16 07:50:53;;;;;;;;;;;;;;;6.02;100.00;102429.50;4955793;28;19923;-73
2022/03/16 07:53:18;;;;;;;;;;;;;;;6.13;100.00;102416.31;4957733;29;19974;-74
2022/03/16 07:55:45;;;;;;;;;;;;;;;6.29;100.00;102412.81;4956942;29;19954;-73
2022/03/16 07:58:11;;;;;;;;;;;;;;;6.34;100.00;102399.63;4957208;28;19918;-73
2022/03/16 08:03:39;;;;;;;;;;;;;;;6.53;100.00;102404.00;4966097;28;19977;-74
2022/03/16 08:06:04;;;;;;;;;;;;;;;6.53;100.00;102414.56;4966239;28;19922;-74
2022/03/16 08:08:30;;;;;;;;;;;;;;;6.59;100.00;102411.91;4967266;28;19981;-74
2022/03/16 08:10:55;;;;;;;;;;;;;;;6.63;100.00;102416.31;4967062;28;19918;-74
2022/03/16 08:13:21;;;;;;;;;;;;;;;6.67;100.00;102399.56;4963589;28;19922;-73
2022/03/16 08:15:46;;;;;;;;;;;;;;;6.74;100.00;102401.34;4963628;28;19918;-74
2022/03/16 08:18:12;;;;;;;;;;;;;;;6.61;100.00;102396.94;4962196;28;19925;-74
2022/03/16 08:20:37;;;;;;;;;;;;;;;6.77;100.00;102396.03;4965880;28;20299;-74
2022/03/16 08:23:03;;;;;;;;;;;;;;;6.71;100.00;102396.94;4962570;28;19970;-74
2022/03/16 08:25:29;;;;;;;;;;;;;;;6.86;100.00;102396.00;4963998;28;20451;-74
2022/03/16 08:27:54;;;;;;;;;;;;;;;7.07;100.00;102393.31;4962862;28;20009;-74
2022/03/16 08:30:19;;;;;;;;;;;;;;;7.04;100.00;102386.28;4963118;28;19918;-75
2022/03/16 08:32:45;;;;;;;;;;;;;;;7.19;100.00;102382.69;4964134;28;19949;-74
2022/03/16 08:35:11;;;;;;;;;;;;;;;7.24;100.00;102388.81;4966517;28;19926;-75
2022/03/16 08:37:36;;;;;;;;;;;;;;;7.35;100.00;102373.81;4961144;28;19918;-75
2022/03/16 08:40:02;;;;;;;;;;;;;;;7.40;100.00;102364.09;4967421;28;20009;-74
2022/03/16 08:42:27;;;;;;;;;;;;;;;7.41;100.00;102353.50;4965270;28;19922;-74
2022/03/16 08:44:53;;;;;;;;;;;;;;;7.47;100.00;102344.66;4965580;28;19919;-74
2022/03/16 08:47:20;;;;;;;;;;;;;;;7.47;100.00;102336.72;4961774;28;19919;-74
2022/03/16 08:52:48;;;;;;;;;;;;;;;7.64;100.00;102338.38;4966857;28;19981;-74
2022/03/16 08:55:15;;;;;;;;;;;;;;;7.69;100.00;102335.69;4965331;28;19918;-74
2022/03/16 08:57:43;;;;;;;;;;;;;;;7.76;100.00;102326.81;4963472;28;19918;-74
2022/03/16 09:00:08;;;;;;;;;;;;;;;7.74;100.00;102321.56;4959414;28;19929;-74
2022/03/16 09:02:33;;;;;;;;;;;;;;;7.91;100.00;102316.13;4962897;28;19923;-74
2022/03/16 09:04:59;;;;;;;;;;;;;;;8.03;100.00;102321.31;4964129;28;20345;-74
2022/03/16 09:07:24;;;;;;;;;;;;;;;8.13;100.00;102316.81;4966953;28;19941;-74
2022/03/16 09:09:49;;;;;;;;;;;;;;;8.20;100.00;102315.84;4973567;28;20407;-75
2022/03/16 09:12:15;;;;;;;;;;;;;;;8.39;100.00;102326.28;4975197;28;20362;-74
2022/03/16 09:14:41;;;;;;;;;;;;;;;8.47;100.00;102323.56;4973883;28;19918;-75
2022/03/16 09:17:07;;;;;;;;;;;;;;;8.52;100.00;102321.75;4973975;28;19925;-74
2022/03/16 09:19:33;;;;;;;;;;;;;;;8.53;100.00;102323.50;4973640;28;19918;-74
2022/03/16 09:22:10;;;;;;;;;;;;;;;8.61;100.00;102317.22;4973655;28;19922;-74
2022/03/16 09:24:38;;;;;;;;;;;;;;;8.69;100.00;102314.50;4957868;28;19929;-75
2022/03/16 09:27:04;;;;;;;;;;;;;;;8.88;100.00;102310.72;4969740;28;19919;-74
2022/03/16 09:29:29;;;;;;;;;;;;;;;8.99;100.00;102304.41;4965633;28;19918;-75
2022/03/16 09:31:54;;;;;;;;;;;;;;;9.05;100.00;102304.31;4958530;28;20030;-75
2022/03/16 09:34:20;;;;;;;;;;;;;;;9.07;100.00;102305.19;4958978;28;19918;-74
2022/03/16 09:36:45;;;;;;;;;;;;;;;9.19;100.00;102305.00;4958520;28;20302;-74
2022/03/16 09:39:11;;;;;;;;;;;;;;;9.19;100.00;102296.16;4959340;28;20435;-73
2022/03/16 09:41:36;;;;;;;;;;;;;;;9.39;100.00;102303.84;4959422;29;20017;-75
2022/03/16 09:44:01;;;;;;;;;;;;;;;9.53;100.00;102288.59;4959387;28;19918;-73
2022/03/16 09:46:31;;;;;;;;;;;;;;;9.50;100.00;102286.91;4959737;29;20011;-73
2022/03/16 09:48:56;;;;;;;;;;;;;;;9.67;100.00;102299.88;4959581;28;20391;-74
2022/03/16 09:51:22;;;;;;;;;;;;;;;9.66;100.00;102288.38;4959314;28;19919;-76
2022/03/16 09:53:47;;;;;;;;;;;;;;;9.90;100.00;102277.38;4958673;29;20089;-74
2022/03/16 09:56:12;;;;;;;;;;;;;;;10.14;100.00;102281.41;4959838;28;19925;-74
2022/03/16 09:58:38;;;;;;;;;;;;;;;10.41;100.00;102283.56;4967113;28;19922;-75
2022/03/16 10:01:05;;;;;;;;;;;;;;;10.53;100.00;102289.50;4964730;28;19918;-74
2022/03/16 10:03:31;;;;;;;;;;;;;;;10.82;100.00;102289.78;4968939;28;20025;-73
2022/03/16 10:05:57;;;;;;;;;;;;;;;11.29;100.00;102291.44;4966590;28;19957;-73
2022/03/16 10:08:30;;;;;;;;;;;;;;;11.80;100.00;102290.22;4969390;28;19922;-73
2022/03/16 10:13:54;;;;;;;;;;;;;;;11.90;100.00;102281.09;4970585;28;20283;-73
2022/03/16 10:16:19;;;;;;;;;;;;;;;12.07;100.00;102278.88;4964936;28;19941;-74
2022/03/16 10:18:51;;;;;;;;;;;;;;;12.20;100.00;102276.75;4971842;28;20360;-76
2022/03/16 10:21:17;;;;;;;;;;;;;;;12.48;100.00;102276.91;4964445;28;20380;-74
2022/03/16 10:23:43;;;;;;;;;;;;;;;12.67;100.00;102280.81;4969518;28;19929;-74
2022/03/16 10:26:14;;;;;;;;;;;;;;;13.27;100.00;102276.31;4960154;28;19923;-73
2022/03/16 10:28:40;;;;;;;;;;;;;;;13.22;100.00;102280.94;4944990;28;19928;-74
2022/03/16 10:31:07;;;;;;;;;;;;;;;12.81;100.00;102278.59;4967914;28;20355;-74
2022/03/16 10:33:33;;;;;;;;;;;;;;;13.31;100.00;102259.31;4964077;28;19925;-76
2022/03/16 10:36:04;;;;;;;;;;;;;;;13.77;100.00;102259.59;4966030;28;19940;-73
2022/03/16 10:38:30;;;;;;;;;;;;;;;13.97;100.00;102264.22;4968462;28;19918;-74
2022/03/16 10:41:08;;;;;;;;;;;;;;;14.44;100.00;102268.81;4962684;28;19982;-74
2022/03/16 10:46:35;;;;;;;;;;;;;;;14.16;100.00;102268.03;4966444;28;19969;-74
2022/03/16 10:49:07;;;;;;;;;;;;;;;14.35;100.00;102263.81;4966729;28;20423;-74
2022/03/16 10:51:32;;;;;;;;;;;;;;;14.51;100.00;102265.00;4965432;28;19919;-74
2022/03/16 10:54:00;;;;;;;;;;;;;;;14.82;100.00;102260.28;4974350;28;20037;-74
2022/03/16 10:56:26;;;;;;;;;;;;;;;15.06;100.00;102264.69;4968531;28;19998;-73
2022/03/16 10:58:52;;;;;;;;;;;;;;;15.12;100.00;102253.75;4973479;28;19980;-74
2022/03/16 11:01:20;;;;;;;;;;;;;;;15.80;100.00;102264.38;4975717;28;19926;-74
2022/03/16 11:03:47;;;;;;;;;;;;;;;15.75;100.00;102258.34;4970301;28;19918;-74
2022/03/16 11:06:13;;;;;;;;;;;;;;;15.11;100.00;102247.50;4977058;28;20495;-74
2022/03/16 11:08:38;;;;;;;;;;;;;;;14.57;100.00;102254.09;4977844;28;19925;-74
2022/03/16 11:13:28;;;;;;;;;;;;;;;14.78;100.00;102253.31;4973495;28;20319;-74
2022/03/16 11:13:52;;;;;;;;;;;;;;;15.57;100.00;102257.28;4966971;28;19972;-74
2022/03/16 11:16:20;;;;;;;;;;;;;;;15.73;100.00;102265.56;4959409;28;20372;-74
2022/03/16 11:18:48;;;;;;;;;;;;;;;16.58;100.00;102266.31;4965118;28;20009;-74
2022/03/16 11:21:14;;;;;;;;;;;;;;;17.14;100.00;102261.91;4967902;28;19918;-74
2022/03/16 11:26:34;;;;;;;;;;;;;;;16.21;100.00;102268.88;4962100;28;19945;-76
2022/03/16 11:29:00;;;;;;;;;;;;;;;16.65;100.00;102270.47;4956754;28;19933;-74
2022/03/16 11:31:29;;;;;;;;;;;;;;;16.17;100.00;102259.19;4967958;28;19922;-74
2022/03/16 11:33:54;;;;;;;;;;;;;;;15.98;100.00;102266.31;4964308;28;19974;-73
2022/03/16 11:36:30;;;;;;;;;;;;;;;15.32;100.00;102264.53;4963746;28;19930;-76
2022/03/16 11:38:56;;;;;;;;;;;;;;;15.46;100.00;102264.03;4970911;28;20287;-78
2022/03/16 11:41:25;;;;;;;;;;;;;;;15.15;100.00;102257.19;4972121;28;20009;-76
2022/03/16 11:43:56;;;;;;;;;;;;;;;15.62;100.00;102262.44;4976425;28;19922;-80
2022/03/16 11:46:27;;;;;;;;;;;;;;;15.96;100.00;102260.13;4977941;28;19918;-75
2022/03/16 11:48:55;;;;;;;;;;;;;;;16.63;100.00;102251.78;4974960;28;20360;-75
2022/03/16 11:51:21;;;;;;;;;;;;;;;17.93;100.00;102253.53;4968636;28;19960;-74
2022/03/16 11:53:46;;;;;;;;;;;;;;;17.08;100.00;102238.00;4955617;29;20368;-73
2022/03/16 11:56:20;;;;;;;;;;;;;;;16.47;100.00;102241.78;4955880;28;19918;-75
2022/03/16 11:58:47;;;;;;;;;;;;;;;15.90;100.00;102237.13;4955998;28;19977;-75
2022/03/16 12:01:31;;;;;;;;;;;;;;;16.04;100.00;102249.97;4956699;28;19918;-76
2022/03/16 12:04:16;;;;;;;;;;;;;;;15.33;100.00;102244.88;4956386;28;19926;-76
2022/03/16 12:07:05;;;;;;;;;;;;;;;15.30;100.00;102240.50;4961769;28;19929;-75
2022/03/16 12:09:33;;;;;;;;;;;;;;;15.25;100.00;102246.97;4956512;28;20017;-77
2022/03/16 12:15:03;;;;;;;;;;;;;;;14.99;100.00;102248.00;4957103;29;19925;-76
2022/03/16 12:17:29;;;;;;;;;;;;;;;15.01;100.00;102232.75;4955706;28;20017;-75
2022/03/16 12:20:10;;;;;;;;;;;;;;;14.48;100.00;102228.56;4960275;28;19964;-74
2022/03/16 12:22:48;;;;;;;;;;;;;;;14.70;100.00;102232.16;4967535;28;20021;-74
2022/03/16 12:25:26;;;;;;;;;;;;;;;14.25;100.00;102241.00;4963893;28;19925;-74
2022/03/16 12:31:06;;;;;;;;;;;;;;;14.49;100.00;102218.75;4966773;28;19941;-75
2022/03/16 12:33:37;;;;;;;;;;;;;;;14.53;100.00;102217.72;4964520;28;20009;-74
2022/03/16 12:36:03;;;;;;;;;;;;;;;13.63;100.00;102219.13;4962213;28;19926;-74
2022/03/16 12:38:32;;;;;;;;;;;;;;;13.52;100.00;102211.44;4964536;28;19918;-74
2022/03/16 12:43:45;;;;;;;;;;;;;;;13.74;100.00;102206.28;4963935;28;19973;-75
2022/03/16 12:46:19;;;;;;;;;;;;;;;14.15;100.00;102200.34;4965622;28;20364;-74
2022/03/16 12:48:48;;;;;;;;;;;;;;;14.54;100.00;102187.38;4967330;28;20378;-75
2022/03/16 12:51:18;;;;;;;;;;;;;;;13.97;100.00;102190.31;4970899;28;19919;-74
2022/03/16 12:53:46;;;;;;;;;;;;;;;13.75;100.00;102186.66;4963954;28;20339;-74
2022/03/16 12:56:14;;;;;;;;;;;;;;;14.18;100.00;102191.34;4969308;28;19945;-75
2022/03/16 12:58:39;;;;;;;;;;;;;;;14.23;100.00;102184.91;4976416;28;19919;-74